createdAt,value
2023-01-29T00:00:09.528Z,95667.88
2023-01-29T00:02:39.230Z,95669.00
2023-01-29T00:05:25.531Z,95656.69
2023-01-29T00:07:53.326Z,95663.25
2023-01-29T00:10:19.855Z,95653.28
2023-01-29T00:12:46.371Z,95651.38
2023-01-29T00:15:12.942Z,95658.19
2023-01-29T00:17:42.315Z,95655.59
2023-01-29T00:20:09.583Z,95657.78
2023-01-29T00:22:36.057Z,95663.50
2023-01-29T00:25:02.777Z,95655.59
2023-01-29T00:27:29.690Z,95649.44
2023-01-29T00:29:56.192Z,95648.78
2023-01-29T00:32:22.708Z,95658.91
2023-01-29T00:34:49.186Z,95659.97
2023-01-29T00:37:15.664Z,95648.09
2023-01-29T00:39:48.107Z,95656.16
2023-01-29T00:42:16.080Z,95655.44
2023-01-29T00:44:43.715Z,95642.47
2023-01-29T00:47:10.208Z,95640.19
2023-01-29T00:49:36.704Z,95657.53
2023-01-29T00:52:06.139Z,95655.75
2023-01-29T00:54:33.236Z,95645.38
2023-01-29T00:57:00.357Z,95645.91
2023-01-29T00:59:26.991Z,95653.97
2023-01-29T01:01:53.506Z,95664.63
2023-01-29T01:04:20.059Z,95656.56
2023-01-29T01:06:46.628Z,95658.34
2023-01-29T01:09:13.111Z,95659.44
2023-01-29T01:11:39.640Z,95655.47
2023-01-29T01:14:06.135Z,95655.06
2023-01-29T01:16:32.679Z,95663.25
2023-01-29T01:18:59.415Z,95659.44
2023-01-29T01:21:26.004Z,95669.81
2023-01-29T01:23:52.497Z,95664.63
2023-01-29T01:26:22.001Z,95664.63
2023-01-29T01:28:48.712Z,95676.50
2023-01-29T01:31:15.210Z,95684.56
2023-01-29T01:33:41.848Z,95680.19
2023-01-29T01:36:08.512Z,95678.97
2023-01-29T01:38:36.655Z,95686.22
2023-01-29T01:41:03.155Z,95688.66
2023-01-29T01:43:56.502Z,95682.41
2023-01-29T01:46:35.310Z,95683.88
2023-01-29T01:49:07.303Z,95694.69
2023-01-29T01:51:37.479Z,95691.41
2023-01-29T01:54:07.955Z,95692.78
2023-01-29T01:56:41.015Z,95698.66
2023-01-29T01:59:10.648Z,95699.88
2023-01-29T02:01:37.578Z,95700.97
2023-01-29T02:04:09.900Z,95707.94
2023-01-29T02:06:39.598Z,95700.56
2023-01-29T02:09:17.542Z,95696.31
2023-01-29T02:11:44.034Z,95703.97
2023-01-29T02:14:10.920Z,95704.81
2023-01-29T02:16:37.637Z,95710.25
2023-01-29T02:19:17.288Z,95717.09
2023-01-29T02:22:08.044Z,95722.03
2023-01-29T02:24:53.181Z,95733.78
2023-01-29T02:27:22.169Z,95746.34
2023-01-29T02:30:05.869Z,95731.31
2023-01-29T02:32:56.907Z,95741.03
2023-01-29T02:35:44.194Z,95751.00
2023-01-29T02:38:35.160Z,95751.00
2023-01-29T02:41:10.597Z,95749.34
2023-01-29T02:43:50.792Z,95757.56
2023-01-29T02:46:47.082Z,95754.56
2023-01-29T02:49:23.936Z,95753.47
2023-01-29T02:52:10.032Z,95758.53
2023-01-29T02:54:56.845Z,95755.22
2023-01-29T02:57:27.002Z,95765.78
2023-01-29T03:00:04.380Z,95753.44
2023-01-29T03:02:55.586Z,95756.41
2023-01-29T03:05:28.888Z,95749.06
2023-01-29T03:07:59.699Z,95759.41
2023-01-29T03:10:34.068Z,95758.59
2023-01-29T03:13:06.595Z,95768.47
2023-01-29T03:15:39.215Z,95767.09
2023-01-29T03:18:12.620Z,95767.81
2023-01-29T03:20:50.616Z,95770.25
2023-01-29T03:23:29.471Z,95752.19
2023-01-29T03:25:58.865Z,95760.13
2023-01-29T03:28:26.116Z,95756.28
2023-01-29T03:30:55.182Z,95773.22
2023-01-29T03:33:24.084Z,95763.22
2023-01-29T03:35:55.375Z,95758.69
2023-01-29T03:38:21.930Z,95765.16
2023-01-29T03:40:57.102Z,95762.13
2023-01-29T03:43:34.100Z,95763.78
2023-01-29T03:46:08.278Z,95756.09
2023-01-29T03:48:41.899Z,95748.16
2023-01-29T03:51:14.520Z,95748.13
2023-01-29T03:54:02.042Z,95754.53
2023-01-29T03:56:35.116Z,95757.09
2023-01-29T03:59:16.169Z,95761.59
2023-01-29T04:01:49.010Z,95748.19
2023-01-29T04:04:22.726Z,95749.22
2023-01-29T04:06:51.144Z,95752.06
2023-01-29T04:09:20.589Z,95751.81
2023-01-29T04:11:50.615Z,95750.53
2023-01-29T04:14:17.656Z,95754.44
2023-01-29T04:16:52.521Z,95751.44
2023-01-29T04:19:19.052Z,95764.28
2023-01-29T04:21:48.735Z,95755.63
2023-01-29T04:24:15.524Z,95745.47
2023-01-29T04:26:42.026Z,95750.00
2023-01-29T04:29:33.494Z,95760.16
2023-01-29T04:32:11.357Z,95750.09
2023-01-29T04:34:56.713Z,95751.81
2023-01-29T04:37:30.022Z,95749.41
2023-01-29T04:40:15.476Z,95747.78
2023-01-29T04:43:01.852Z,95747.50
2023-01-29T04:45:34.725Z,95747.28
2023-01-29T04:48:27.943Z,95743.56
2023-01-29T04:51:13.103Z,95746.22
2023-01-29T04:54:25.984Z,95751.66
2023-01-29T04:56:52.376Z,95743.31
2023-01-29T04:59:29.519Z,95759.34
2023-01-29T05:01:56.318Z,95748.03
2023-01-29T05:04:23.775Z,95747.59
2023-01-29T05:06:52.015Z,95747.78
2023-01-29T05:09:19.790Z,95748.41
2023-01-29T05:11:47.750Z,95752.38
2023-01-29T05:14:17.234Z,95756.38
2023-01-29T05:16:46.382Z,95759.81
2023-01-29T05:19:14.885Z,95768.59
2023-01-29T05:21:44.582Z,95764.75
2023-01-29T05:24:17.019Z,95760.72
2023-01-29T05:26:45.947Z,95764.53
2023-01-29T05:29:12.455Z,95767.78
2023-01-29T05:31:38.948Z,95766.84
2023-01-29T05:34:05.597Z,95772.09
2023-01-29T05:36:32.056Z,95786.63
2023-01-29T05:38:58.573Z,95787.69
2023-01-29T05:41:25.308Z,95792.34
2023-01-29T05:43:51.838Z,95802.91
2023-01-29T05:46:18.336Z,95802.91
2023-01-29T05:48:44.931Z,95808.66
2023-01-29T05:51:11.451Z,95810.94
2023-01-29T05:53:38.015Z,95826.72
2023-01-29T05:56:05.520Z,95825.88
2023-01-29T05:58:32.906Z,95829.97
2023-01-29T06:01:17.715Z,95826.69
2023-01-29T06:03:44.597Z,95836.56
2023-01-29T06:06:11.477Z,95840.63
2023-01-29T06:08:38.425Z,95850.28
2023-01-29T06:11:07.472Z,95845.56
2023-01-29T06:13:34.451Z,95847.78
2023-01-29T06:16:01.208Z,95854.50
2023-01-29T06:18:27.663Z,95857.25
2023-01-29T06:20:54.137Z,95857.94
2023-01-29T06:23:21.104Z,95856.25
2023-01-29T06:25:47.755Z,95862.34
2023-01-29T06:28:14.245Z,95867.59
2023-01-29T06:30:40.827Z,95866.22
2023-01-29T06:33:07.335Z,95870.72
2023-01-29T06:35:33.821Z,95875.06
2023-01-29T06:38:00.352Z,95883.56
2023-01-29T06:40:26.869Z,95870.63
2023-01-29T06:42:53.328Z,95887.00
2023-01-29T06:45:19.890Z,95893.31
2023-01-29T06:47:46.397Z,95893.25
2023-01-29T06:50:12.958Z,95895.34
2023-01-29T06:52:39.515Z,95889.50
2023-01-29T06:55:06.433Z,95887.28
2023-01-29T06:57:32.929Z,95904.84
2023-01-29T06:59:59.397Z,95894.22
2023-01-29T07:02:25.863Z,95889.97
2023-01-29T07:04:52.412Z,95895.06
2023-01-29T07:07:18.911Z,95898.09
2023-01-29T07:09:45.404Z,95903.72
2023-01-29T07:12:11.994Z,95917.56
2023-01-29T07:14:38.486Z,95913.06
2023-01-29T07:17:04.938Z,95911.38
2023-01-29T07:19:31.409Z,95918.84
2023-01-29T07:21:57.887Z,95911.22
2023-01-29T07:24:24.541Z,95912.09
2023-01-29T07:26:51.038Z,95906.47
2023-01-29T07:29:17.488Z,95912.81
2023-01-29T07:31:43.995Z,95923.50
2023-01-29T07:34:10.513Z,95903.09
2023-01-29T07:36:36.972Z,95907.53
2023-01-29T07:39:03.573Z,95903.59
2023-01-29T07:41:30.045Z,95893.91
2023-01-29T07:43:56.503Z,95886.94
2023-01-29T07:46:22.973Z,95889.66
2023-01-29T07:48:49.588Z,95885.13
2023-01-29T07:51:16.104Z,95877.91
2023-01-29T07:53:42.587Z,95886.03
2023-01-29T07:56:09.121Z,95879.69
2023-01-29T07:58:36.754Z,95892.38
2023-01-29T08:01:07.119Z,95897.47
2023-01-29T08:03:33.657Z,95898.75
2023-01-29T08:06:00.172Z,95883.78
2023-01-29T08:08:26.655Z,95885.25
2023-01-29T08:10:53.115Z,95877.56
2023-01-29T08:13:19.563Z,95880.09
2023-01-29T08:15:46.136Z,95887.47
2023-01-29T08:18:15.177Z,95894.56
2023-01-29T08:20:41.627Z,95893.59
2023-01-29T08:23:13.941Z,95891.06
2023-01-29T08:25:40.685Z,95888.84
2023-01-29T08:28:07.428Z,95893.91
2023-01-29T08:30:34.395Z,95895.47
2023-01-29T08:33:01.510Z,95897.25
2023-01-29T08:35:28.093Z,95897.31
2023-01-29T08:37:55.521Z,95904.09
2023-01-29T08:40:22.891Z,95895.34
2023-01-29T08:42:49.667Z,95895.59
2023-01-29T08:45:16.461Z,95902.06
2023-01-29T08:47:49.888Z,95901.44
2023-01-29T08:50:17.777Z,95895.34
2023-01-29T08:52:45.150Z,95908.47
2023-01-29T08:55:12.399Z,95913.03
2023-01-29T08:57:40.105Z,95911.69
2023-01-29T09:00:07.781Z,95921.34
2023-01-29T09:02:34.282Z,95913.84
2023-01-29T09:05:00.821Z,95910.88
2023-01-29T09:07:29.967Z,95909.44
2023-01-29T09:09:56.652Z,95912.50
2023-01-29T09:12:23.322Z,95915.22
2023-01-29T09:14:49.825Z,95906.19
2023-01-29T09:17:16.284Z,95906.78
2023-01-29T09:19:43.051Z,95909.06
2023-01-29T09:22:11.628Z,95915.84
2023-01-29T09:24:38.426Z,95910.91
2023-01-29T09:27:05.040Z,95915.63
2023-01-29T09:29:33.050Z,95916.81
2023-01-29T09:32:00.663Z,95922.06
2023-01-29T09:34:27.161Z,95920.19
2023-01-29T09:36:53.611Z,95919.91
2023-01-29T09:39:22.176Z,95928.69
2023-01-29T09:41:54.609Z,95931.06
2023-01-29T09:44:27.504Z,95932.59
2023-01-29T09:46:54.976Z,95931.81
2023-01-29T09:49:24.728Z,95933.41
2023-01-29T09:51:58.920Z,95939.91
2023-01-29T09:55:02.509Z,95946.91
2023-01-29T09:57:37.922Z,95946.13
2023-01-29T10:00:04.975Z,95947.13
2023-01-29T10:02:48.564Z,95956.91
2023-01-29T10:05:21.656Z,95960.75
2023-01-29T10:08:03.777Z,95966.31
2023-01-29T10:10:30.264Z,95967.66
2023-01-29T10:13:21.326Z,95972.44
2023-01-29T10:16:00.385Z,95978.88
2023-01-29T10:18:41.812Z,95981.13
2023-01-29T10:21:41.908Z,95982.13
2023-01-29T10:24:59.807Z,95983.13
2023-01-29T10:27:34.688Z,95988.28
2023-01-29T10:30:03.385Z,95985.72
2023-01-29T10:32:31.043Z,95983.22
2023-01-29T10:35:03.547Z,95978.97
2023-01-29T10:37:43.308Z,95976.78
2023-01-29T10:40:34.065Z,95980.84
2023-01-29T10:43:18.001Z,95983.00
2023-01-29T10:46:03.809Z,95973.81
2023-01-29T10:48:30.201Z,95976.56
2023-01-29T10:51:25.944Z,95975.38
2023-01-29T10:54:02.436Z,95974.63
2023-01-29T10:56:44.309Z,95973.19
2023-01-29T10:59:16.874Z,95978.06
2023-01-29T11:01:44.532Z,95970.94
2023-01-29T11:04:12.742Z,95978.00
2023-01-29T11:06:39.238Z,95976.19
2023-01-29T11:12:16.236Z,95964.66
2023-01-29T11:14:49.100Z,95966.81
2023-01-29T11:17:21.420Z,95961.81
2023-01-29T11:19:49.997Z,95964.06
2023-01-29T11:22:20.216Z,95968.00
2023-01-29T11:24:47.459Z,95964.22
2023-01-29T11:27:26.194Z,95965.91
2023-01-29T11:29:53.426Z,95968.50
2023-01-29T11:32:22.903Z,95966.31
2023-01-29T11:35:04.965Z,95960.13
2023-01-29T11:37:33.752Z,95956.69
2023-01-29T11:40:00.271Z,95961.66
2023-01-29T11:42:31.119Z,95958.34
2023-01-29T11:44:57.800Z,95959.56
2023-01-29T11:47:29.229Z,95947.88
2023-01-29T11:49:58.662Z,95946.59
2023-01-29T11:52:39.761Z,95943.56
2023-01-29T11:55:17.506Z,95946.50
2023-01-29T11:57:46.928Z,95944.75
2023-01-29T12:00:23.915Z,95946.72
2023-01-29T12:02:54.887Z,95940.53
2023-01-29T12:05:23.646Z,95937.31
2023-01-29T12:07:52.403Z,95944.19
2023-01-29T12:10:34.167Z,95934.25
2023-01-29T12:13:09.579Z,95930.53
2023-01-29T12:15:40.432Z,95922.25
2023-01-29T12:18:32.005Z,95930.84
2023-01-29T12:21:02.365Z,95930.44
2023-01-29T12:23:48.973Z,95923.44
2023-01-29T12:26:22.141Z,95927.09
2023-01-29T12:29:00.194Z,95924.16
2023-01-29T12:31:38.480Z,95920.88
2023-01-29T12:34:21.403Z,95908.25
2023-01-29T12:36:55.604Z,95904.19
2023-01-29T12:39:22.470Z,95911.63
2023-01-29T12:41:59.988Z,95901.34
2023-01-29T12:44:42.491Z,95910.44
2023-01-29T12:47:17.121Z,95897.03
2023-01-29T12:49:46.650Z,95901.47
2023-01-29T12:52:23.852Z,95896.31
2023-01-29T12:54:59.265Z,95893.31
2023-01-29T12:57:40.320Z,95885.78
2023-01-29T13:00:20.543Z,95886.00
2023-01-29T13:02:51.254Z,95879.56
2023-01-29T13:05:26.265Z,95883.00
2023-01-29T13:07:58.017Z,95883.63
2023-01-29T13:10:32.701Z,95881.06
2023-01-29T13:13:05.025Z,95884.53
2023-01-29T13:15:36.529Z,95877.63
2023-01-29T13:18:31.273Z,95877.47
2023-01-29T13:21:01.168Z,95888.47
2023-01-29T13:23:37.112Z,95889.41
2023-01-29T13:26:04.262Z,95887.72
2023-01-29T13:28:30.744Z,95887.91
2023-01-29T13:31:29.722Z,95886.97
2023-01-29T13:34:04.384Z,95892.31
2023-01-29T13:36:31.348Z,95886.31
2023-01-29T13:42:16.077Z,95888.34
2023-01-29T13:44:47.920Z,95891.78
2023-01-29T13:47:23.720Z,95887.03
2023-01-29T13:49:59.072Z,95893.03
2023-01-29T13:52:41.776Z,95886.16
2023-01-29T13:55:32.547Z,95889.53
2023-01-29T13:58:06.123Z,95888.94
2023-01-29T14:00:35.561Z,95885.25
2023-01-29T14:03:01.981Z,95883.75
2023-01-29T14:05:31.637Z,95882.69
2023-01-29T14:08:14.142Z,95881.03
2023-01-29T14:10:43.896Z,95878.91
2023-01-29T14:13:17.165Z,95880.66
2023-01-29T14:15:45.184Z,95882.34
2023-01-29T14:18:16.258Z,95888.47
2023-01-29T14:21:02.548Z,95889.38
2023-01-29T14:23:47.004Z,95888.63
2023-01-29T14:26:26.244Z,95882.72
2023-01-29T14:29:06.535Z,95892.53
2023-01-29T14:31:47.708Z,95892.28
2023-01-29T14:34:23.536Z,95891.53
2023-01-29T14:36:53.488Z,95888.78
2023-01-29T14:39:36.988Z,95893.97
2023-01-29T14:42:13.650Z,95899.81
2023-01-29T14:44:46.246Z,95896.75
2023-01-29T14:47:38.739Z,95892.09
2023-01-29T14:50:29.740Z,95887.31
2023-01-29T14:53:01.915Z,95900.47
2023-01-29T14:55:38.056Z,95899.81
2023-01-29T14:58:04.941Z,95910.22
2023-01-29T15:00:35.004Z,95904.53
2023-01-29T15:03:02.828Z,95897.34
2023-01-29T15:05:36.426Z,95899.72
2023-01-29T15:08:23.322Z,95897.31
2023-01-29T15:10:54.698Z,95906.97
2023-01-29T15:13:35.831Z,95895.22
2023-01-29T15:16:13.422Z,95898.97
2023-01-29T15:18:43.514Z,95894.22
2023-01-29T15:21:15.075Z,95890.13
2023-01-29T15:23:42.570Z,95891.84
2023-01-29T15:26:17.420Z,95886.53
2023-01-29T15:28:47.209Z,95876.16
2023-01-29T15:31:18.557Z,95876.03
2023-01-29T15:33:47.165Z,95870.88
2023-01-29T15:36:21.841Z,95870.53
2023-01-29T15:38:48.623Z,95872.34
2023-01-29T15:41:18.933Z,95878.47
2023-01-29T15:43:50.879Z,95874.81
2023-01-29T15:46:33.706Z,95868.56
2023-01-29T15:49:09.536Z,95866.78
2023-01-29T15:51:39.465Z,95865.09
2023-01-29T15:54:16.894Z,95870.84
2023-01-29T15:56:47.822Z,95882.19
2023-01-29T15:59:22.561Z,95871.72
2023-01-29T16:01:53.199Z,95881.34
2023-01-29T16:04:30.530Z,95887.03
2023-01-29T16:06:58.249Z,95891.03
2023-01-29T16:09:26.289Z,95891.53
2023-01-29T16:11:54.438Z,95883.53
2023-01-29T16:14:23.265Z,95890.72
2023-01-29T16:16:50.123Z,95883.88
2023-01-29T16:19:28.837Z,95901.06
2023-01-29T16:22:07.167Z,95885.59
2023-01-29T16:24:36.278Z,95902.78
2023-01-29T16:27:10.899Z,95897.16
2023-01-29T16:29:37.533Z,95898.03
2023-01-29T16:32:04.924Z,95890.56
2023-01-29T16:34:35.069Z,95899.28
2023-01-29T16:37:04.430Z,95891.44
2023-01-29T16:39:37.429Z,95894.22
2023-01-29T16:42:10.096Z,95898.16
2023-01-29T16:44:37.978Z,95905.19
2023-01-29T16:47:16.006Z,95915.84
2023-01-29T16:49:45.734Z,95911.06
2023-01-29T16:52:28.712Z,95905.50
2023-01-29T16:55:13.536Z,95908.44
2023-01-29T16:57:40.549Z,95902.91
2023-01-29T17:00:13.260Z,95906.00
2023-01-29T17:02:40.003Z,95911.25
2023-01-29T17:05:10.014Z,95915.81
2023-01-29T17:07:37.033Z,95914.03
2023-01-29T17:10:06.300Z,95913.03
2023-01-29T17:12:33.653Z,95918.28
2023-01-29T17:15:20.028Z,95913.84
2023-01-29T17:17:48.836Z,95906.66
2023-01-29T17:20:17.092Z,95913.84
2023-01-29T17:22:44.041Z,95916.13
2023-01-29T17:25:15.386Z,95913.50
2023-01-29T17:27:43.798Z,95917.97
2023-01-29T17:30:15.466Z,95921.63
2023-01-29T17:32:43.602Z,95927.50
2023-01-29T17:35:16.156Z,95930.75
2023-01-29T17:37:43.456Z,95924.88
2023-01-29T17:40:17.266Z,95936.94
2023-01-29T17:42:43.983Z,95935.09
2023-01-29T17:45:10.783Z,95941.84
2023-01-29T17:47:37.279Z,95939.91
2023-01-29T17:50:16.498Z,95942.03
2023-01-29T17:52:43.043Z,95942.44
2023-01-29T17:55:09.782Z,95933.31
2023-01-29T17:57:36.423Z,95943.28
2023-01-29T18:00:03.966Z,95933.47
2023-01-29T18:02:30.541Z,95944.00
2023-01-29T18:04:57.073Z,95948.72
2023-01-29T18:07:23.703Z,95951.00
2023-01-29T18:09:50.481Z,95953.56
2023-01-29T18:12:17.096Z,95946.03
2023-01-29T18:14:44.306Z,95944.41
2023-01-29T18:17:10.906Z,95946.56
2023-01-29T18:19:37.452Z,95945.75
2023-01-29T18:22:04.041Z,95944.09
2023-01-29T18:24:30.603Z,95941.63
2023-01-29T18:26:57.208Z,95947.38
2023-01-29T18:29:23.964Z,95940.97
2023-01-29T18:31:50.762Z,95935.38
2023-01-29T18:34:18.451Z,95941.78
2023-01-29T18:36:44.910Z,95949.81
2023-01-29T18:39:11.874Z,95941.81
2023-01-29T18:41:38.930Z,95942.06
2023-01-29T18:44:05.559Z,95944.81
2023-01-29T18:46:32.272Z,95940.03
2023-01-29T18:48:59.117Z,95937.72
2023-01-29T18:51:26.160Z,95947.06
2023-01-29T18:53:53.070Z,95940.38
2023-01-29T18:56:19.821Z,95929.28
2023-01-29T18:58:51.991Z,95932.97
2023-01-29T19:01:19.854Z,95926.06
2023-01-29T19:03:46.830Z,95929.31
2023-01-29T19:06:13.340Z,95920.06
2023-01-29T19:08:40.759Z,95929.16
2023-01-29T19:11:07.405Z,95926.00
2023-01-29T19:13:35.507Z,95929.00
2023-01-29T19:16:27.602Z,95937.88
2023-01-29T19:18:55.127Z,95935.81
2023-01-29T19:21:22.389Z,95929.34
2023-01-29T19:23:49.176Z,95936.47
2023-01-29T19:26:17.715Z,95933.28
2023-01-29T19:28:47.055Z,95928.53
2023-01-29T19:31:14.896Z,95938.97
2023-01-29T19:33:41.474Z,95933.97
2023-01-29T19:36:08.869Z,95931.06
2023-01-29T19:38:35.511Z,95947.84
2023-01-29T19:41:02.263Z,95934.31
2023-01-29T19:43:29.803Z,95940.41
2023-01-29T19:46:00.512Z,95955.13
2023-01-29T19:48:27.590Z,95953.81
2023-01-29T19:50:59.083Z,95961.47
2023-01-29T19:53:27.903Z,95961.25
2023-01-29T19:56:00.211Z,95965.13
2023-01-29T19:58:26.899Z,95967.72
2023-01-29T20:01:06.034Z,95973.72
2023-01-29T20:03:33.089Z,95975.63
2023-01-29T20:06:04.806Z,95970.50
2023-01-29T20:08:32.047Z,95983.41
2023-01-29T20:10:59.156Z,95977.91
2023-01-29T20:13:25.878Z,95981.09
2023-01-29T20:15:52.507Z,95980.44
2023-01-29T20:18:19.586Z,95981.13
2023-01-29T20:20:48.214Z,95981.72
2023-01-29T20:23:22.320Z,95982.81
2023-01-29T20:25:59.417Z,95982.66
2023-01-29T20:28:26.018Z,95986.25
2023-01-29T20:30:53.062Z,95992.34
2023-01-29T20:33:19.693Z,95987.69
2023-01-29T20:35:46.228Z,95992.34
2023-01-29T20:38:12.781Z,95995.25
2023-01-29T20:40:39.351Z,95995.09
2023-01-29T20:43:05.983Z,96007.00
2023-01-29T20:45:33.037Z,95998.78
2023-01-29T20:47:59.643Z,96002.75
2023-01-29T20:50:26.124Z,96005.22
2023-01-29T20:52:52.675Z,96005.38
2023-01-29T20:55:19.286Z,96003.88
2023-01-29T20:57:45.846Z,96008.78
2023-01-29T21:00:33.193Z,96014.00
2023-01-29T21:03:00.459Z,96017.28
2023-01-29T21:05:27.326Z,96019.19
2023-01-29T21:07:56.793Z,96026.06
2023-01-29T21:10:23.845Z,96018.38
2023-01-29T21:12:50.345Z,96019.75
2023-01-29T21:15:16.833Z,96012.34
2023-01-29T21:17:47.581Z,96016.03
2023-01-29T21:20:16.064Z,96016.19
2023-01-29T21:22:42.908Z,96017.16
2023-01-29T21:25:10.075Z,96021.00
2023-01-29T21:27:36.618Z,96014.69
2023-01-29T21:30:03.985Z,96007.69
2023-01-29T21:32:31.029Z,96009.91
2023-01-29T21:34:57.537Z,96016.75
2023-01-29T21:37:24.059Z,96015.94
2023-01-29T21:39:50.574Z,96019.78
2023-01-29T21:42:17.177Z,96017.03
2023-01-29T21:44:43.725Z,96011.94
2023-01-29T21:47:10.839Z,96004.28
2023-01-29T21:49:46.839Z,96006.59
2023-01-29T21:52:13.854Z,96006.19
2023-01-29T21:54:41.354Z,96015.22
2023-01-29T21:57:12.344Z,96004.16
2023-01-29T21:59:39.380Z,96006.75
2023-01-29T22:02:06.354Z,95999.91
2023-01-29T22:04:33.459Z,95994.03
2023-01-29T22:06:59.973Z,96001.69
2023-01-29T22:09:27.260Z,95996.88
2023-01-29T22:11:55.174Z,95990.31
2023-01-29T22:14:21.941Z,95993.56
2023-01-29T22:16:50.168Z,95999.59
2023-01-29T22:19:16.670Z,95995.78
2023-01-29T22:21:45.922Z,95993.56
2023-01-29T22:24:12.833Z,95993.31
2023-01-29T22:26:39.366Z,95992.50
2023-01-29T22:29:05.854Z,95992.91
2023-01-29T22:31:35.088Z,95989.63
2023-01-29T22:34:03.572Z,95987.84
2023-01-29T22:36:30.597Z,95986.34
2023-01-29T22:38:57.463Z,95984.13
2023-01-29T22:41:23.988Z,95978.22
2023-01-29T22:43:50.937Z,95977.94
2023-01-29T22:46:17.628Z,95971.19
2023-01-29T22:48:44.497Z,95961.13
2023-01-29T22:51:11.002Z,95964.50
2023-01-29T22:53:39.335Z,95947.31
2023-01-29T22:56:06.744Z,95950.28
2023-01-29T22:58:33.705Z,95943.75
2023-01-29T23:01:00.394Z,95926.66
2023-01-29T23:03:26.896Z,95928.47
2023-01-29T23:05:53.522Z,95928.19
2023-01-29T23:08:20.019Z,95922.28
2023-01-29T23:10:47.087Z,95923.19
2023-01-29T23:13:13.701Z,95915.88
2023-01-29T23:15:40.356Z,95907.22
2023-01-29T23:18:06.884Z,95916.13
2023-01-29T23:20:33.335Z,95908.19
2023-01-29T23:22:59.971Z,95909.69
2023-01-29T23:25:26.608Z,95909.47
2023-01-29T23:27:56.662Z,95905.19
2023-01-29T23:30:23.303Z,95902.22
2023-01-29T23:32:50.315Z,95901.53
2023-01-29T23:35:16.816Z,95901.78
2023-01-29T23:37:43.631Z,95896.56
2023-01-29T23:40:10.879Z,95891.66
2023-01-29T23:42:38.994Z,95892.84
2023-01-29T23:45:06.215Z,95899.16
2023-01-29T23:47:32.721Z,95894.41
2023-01-29T23:49:59.600Z,95886.78
2023-01-29T23:52:26.246Z,95888.56
2023-01-29T23:54:53.999Z,95891.63
2023-01-29T23:57:20.479Z,95880.09
2023-01-29T23:59:47.024Z,95886.81
